createdAt,value
2019-01-23T00:01:33.637Z,94.00
2019-01-23T00:04:04.592Z,93.90
2019-01-23T00:06:35.106Z,93.90
2019-01-23T00:09:07.503Z,93.70
2019-01-23T00:11:38.035Z,93.80
2019-01-23T00:14:09.144Z,93.80
2019-01-23T00:16:39.636Z,93.80
2019-01-23T00:19:10.140Z,93.60
2019-01-23T00:21:42.088Z,93.80
2019-01-23T00:24:12.607Z,93.80
2019-01-23T00:26:43.119Z,93.60
2019-01-23T00:29:13.680Z,93.60
2019-01-23T00:31:44.223Z,93.70
2019-01-23T00:34:14.794Z,93.90
2019-01-23T00:36:45.376Z,93.90
2019-01-23T00:39:17.406Z,93.70
2019-01-23T00:41:47.908Z,94.00
2019-01-23T00:44:18.402Z,94.00
2019-01-23T00:46:50.904Z,94.20
2019-01-23T00:49:21.393Z,94.20
2019-01-23T00:51:52.748Z,94.10
2019-01-23T00:54:23.697Z,93.80
2019-01-23T00:56:54.208Z,93.80
2019-01-23T00:59:24.718Z,93.80
2019-01-23T01:01:55.305Z,93.40
2019-01-23T01:04:25.897Z,93.30
2019-01-23T01:06:56.576Z,93.20
2019-01-23T01:09:27.159Z,93.40
2019-01-23T01:11:57.680Z,93.60
2019-01-23T01:14:28.209Z,93.80
2019-01-23T01:16:58.775Z,93.90
2019-01-23T01:19:29.319Z,93.60
2019-01-23T01:21:59.800Z,93.50
2019-01-23T01:24:30.314Z,93.40
2019-01-23T01:27:02.736Z,93.50
2019-01-23T01:29:35.159Z,93.50
2019-01-23T01:32:05.747Z,93.50
2019-01-23T01:34:36.242Z,93.30
2019-01-23T01:37:06.848Z,93.00
2019-01-23T01:39:37.341Z,92.70
2019-01-23T01:42:07.943Z,92.60
2019-01-23T01:44:38.428Z,92.90
2019-01-23T01:47:08.946Z,92.90
2019-01-23T01:49:39.462Z,93.10
2019-01-23T01:52:09.948Z,93.40
2019-01-23T01:54:40.549Z,93.60
2019-01-23T01:57:11.029Z,93.70
2019-01-23T01:59:41.559Z,93.70
2019-01-23T02:02:12.038Z,93.70
2019-01-23T02:04:42.568Z,93.70
2019-01-23T02:07:13.060Z,93.50
2019-01-23T02:09:45.519Z,93.00
2019-01-23T02:12:16.929Z,93.00
2019-01-23T02:14:47.413Z,93.20
2019-01-23T02:17:17.922Z,93.10
2019-01-23T02:19:48.474Z,93.10
2019-01-23T02:22:18.989Z,93.20
2019-01-23T02:24:49.489Z,93.30
2019-01-23T02:27:20.072Z,93.40
2019-01-23T02:29:50.558Z,93.70
2019-01-23T02:32:21.074Z,93.80
2019-01-23T02:34:51.562Z,93.80
2019-01-23T02:37:22.077Z,93.70
2019-01-23T02:39:52.583Z,93.40
2019-01-23T02:42:23.186Z,93.40
2019-01-23T02:44:53.691Z,93.40
2019-01-23T02:47:24.227Z,93.10
2019-01-23T02:49:54.726Z,93.10
2019-01-23T02:52:25.240Z,93.00
2019-01-23T02:54:55.729Z,93.10
2019-01-23T02:57:26.258Z,93.20
2019-01-23T02:59:56.744Z,92.70
2019-01-23T03:02:27.443Z,92.40
2019-01-23T03:04:57.963Z,92.30
2019-01-23T03:07:28.482Z,92.20
2019-01-23T03:09:59.274Z,92.20
2019-01-23T03:12:29.803Z,92.40
2019-01-23T03:15:01.306Z,92.60
2019-01-23T03:17:31.876Z,92.70
2019-01-23T03:20:02.410Z,93.20
2019-01-23T03:22:32.897Z,93.10
2019-01-23T03:25:05.340Z,93.30
2019-01-23T03:27:37.243Z,93.60
2019-01-23T03:30:12.494Z,93.30
2019-01-23T03:32:42.996Z,93.30
2019-01-23T03:35:14.437Z,93.30
2019-01-23T03:37:46.730Z,93.40
2019-01-23T03:40:20.379Z,93.20
2019-01-23T03:42:51.094Z,93.00
2019-01-23T03:45:21.694Z,92.60
2019-01-23T03:47:52.255Z,92.10
2019-01-23T03:50:24.308Z,91.80
2019-01-23T03:52:54.938Z,91.90
2019-01-23T03:55:25.448Z,92.10
2019-01-23T03:57:56.031Z,92.30
2019-01-23T04:00:26.518Z,92.50
2019-01-23T04:02:57.118Z,92.90
2019-01-23T04:05:27.732Z,92.70
2019-01-23T04:07:59.814Z,92.70
2019-01-23T04:10:30.304Z,92.80
2019-01-23T04:13:00.810Z,92.90
2019-01-23T04:15:31.403Z,93.00
2019-01-23T04:18:01.961Z,93.00
2019-01-23T04:20:32.524Z,93.20
2019-01-23T04:23:03.007Z,93.00
2019-01-23T04:25:33.666Z,92.80
2019-01-23T04:28:04.159Z,93.00
2019-01-23T04:30:34.725Z,93.30
2019-01-23T04:33:05.215Z,93.60
2019-01-23T04:35:35.765Z,93.70
2019-01-23T04:38:06.245Z,93.70
2019-01-23T04:40:36.781Z,93.60
2019-01-23T04:43:07.339Z,93.30
2019-01-23T04:45:39.058Z,93.10
2019-01-23T04:48:09.582Z,93.00
2019-01-23T04:50:59.871Z,93.00
2019-01-23T04:53:38.242Z,93.00
2019-01-23T04:56:08.771Z,93.10
2019-01-23T04:58:39.314Z,92.90
2019-01-23T05:01:09.882Z,92.90
2019-01-23T05:03:40.479Z,92.90
2019-01-23T05:06:10.949Z,93.10
2019-01-23T05:08:41.485Z,93.30
2019-01-23T05:11:11.975Z,93.40
2019-01-23T05:13:42.544Z,93.30
2019-01-23T05:16:13.028Z,93.20
2019-01-23T05:18:43.544Z,93.10
2019-01-23T05:21:14.055Z,93.10
2019-01-23T05:23:45.101Z,93.00
2019-01-23T05:26:15.633Z,92.90
2019-01-23T05:28:46.119Z,92.70
2019-01-23T05:31:16.636Z,92.80
2019-01-23T05:33:47.239Z,93.10
2019-01-23T05:36:17.736Z,93.20
2019-01-23T05:38:48.251Z,93.20
2019-01-23T05:41:18.808Z,93.20
2019-01-23T05:43:49.350Z,93.10
2019-01-23T05:46:21.374Z,93.00
2019-01-23T05:48:51.892Z,93.10
2019-01-23T05:51:22.555Z,93.20
2019-01-23T05:53:53.052Z,93.20
2019-01-23T05:56:26.251Z,93.30
2019-01-23T05:58:56.754Z,93.30
2019-01-23T06:01:27.437Z,93.30
2019-01-23T06:03:58.081Z,93.40
2019-01-23T06:06:28.909Z,93.50
2019-01-23T06:08:59.489Z,93.50
2019-01-23T06:11:29.971Z,93.50
2019-01-23T06:14:00.489Z,93.60
2019-01-23T06:16:32.211Z,93.50
2019-01-23T06:19:02.731Z,93.40
2019-01-23T06:21:33.262Z,93.20
2019-01-23T06:24:24.635Z,93.20
2019-01-23T06:26:56.147Z,93.20
2019-01-23T06:29:26.678Z,93.00
2019-01-23T06:31:57.183Z,92.70
2019-01-23T06:34:27.699Z,92.60
2019-01-23T06:36:59.333Z,92.40
2019-01-23T06:39:29.992Z,92.50
2019-01-23T06:42:00.614Z,92.60
2019-01-23T06:44:31.133Z,92.70
2019-01-23T06:47:01.626Z,92.80
2019-01-23T06:49:32.130Z,93.10
2019-01-23T06:52:02.659Z,93.10
2019-01-23T06:54:33.168Z,93.20
2019-01-23T06:57:03.719Z,93.10
2019-01-23T06:59:34.368Z,93.20
2019-01-23T07:02:05.998Z,93.60
2019-01-23T07:04:36.494Z,93.70
2019-01-23T07:07:07.009Z,93.50
2019-01-23T07:09:37.497Z,93.40
2019-01-23T07:12:08.042Z,93.40
2019-01-23T07:14:38.528Z,93.30
2019-01-23T07:17:09.048Z,93.20
2019-01-23T07:19:39.538Z,93.10
2019-01-23T07:22:10.057Z,93.00
2019-01-23T07:24:41.420Z,93.00
2019-01-23T07:27:11.928Z,92.90
2019-01-23T07:29:42.420Z,92.80
2019-01-23T07:32:13.021Z,92.80
2019-01-23T07:34:43.518Z,92.90
2019-01-23T07:37:14.046Z,92.70
2019-01-23T07:39:44.533Z,92.70
2019-01-23T07:42:15.055Z,92.50
2019-01-23T07:44:45.553Z,92.30
2019-01-23T07:47:16.070Z,92.40
2019-01-23T07:49:46.561Z,92.60
2019-01-23T07:52:17.086Z,92.30
2019-01-23T07:54:47.593Z,92.30
2019-01-23T07:57:18.117Z,92.30
2019-01-23T07:59:51.836Z,92.10
2019-01-23T08:02:22.344Z,92.00
2019-01-23T08:04:52.850Z,92.10
2019-01-23T08:07:23.373Z,92.10
2019-01-23T08:09:53.882Z,92.00
2019-01-23T08:12:24.438Z,91.80
2019-01-23T08:14:54.944Z,91.80
2019-01-23T08:17:25.444Z,91.60
2019-01-23T08:19:55.943Z,91.10
2019-01-23T08:22:26.495Z,90.90
2019-01-23T08:24:56.990Z,90.70
2019-01-23T08:27:28.622Z,90.50
2019-01-23T08:29:59.098Z,90.60
2019-01-23T08:32:29.613Z,90.40
2019-01-23T08:35:00.230Z,90.50
2019-01-23T08:37:30.693Z,90.00
2019-01-23T08:40:01.204Z,88.40
2019-01-23T08:42:31.720Z,88.10
2019-01-23T08:45:02.196Z,88.50
2019-01-23T08:47:32.731Z,88.50
2019-01-23T08:50:04.774Z,89.00
2019-01-23T08:52:35.251Z,86.50
2019-01-23T08:55:07.793Z,86.20
2019-01-23T08:57:38.270Z,87.80
2019-01-23T09:00:15.986Z,85.90
2019-01-23T09:02:46.602Z,84.70
2019-01-23T09:05:17.361Z,84.70
2019-01-23T09:07:47.830Z,84.70
2019-01-23T09:10:29.932Z,83.80
2019-01-23T09:13:01.010Z,86.90
2019-01-23T09:15:31.630Z,86.80
2019-01-23T09:18:03.735Z,85.70
2019-01-23T09:20:34.205Z,84.00
2019-01-23T09:23:04.849Z,84.10
2019-01-23T09:25:38.081Z,84.00
2019-01-23T09:28:08.583Z,84.60
2019-01-23T09:30:52.703Z,84.80
2019-01-23T09:33:30.442Z,85.00
2019-01-23T09:36:26.653Z,85.30
2019-01-23T09:39:25.052Z,86.10
2019-01-23T09:42:33.264Z,85.40
2019-01-23T09:45:55.876Z,83.50
2019-01-23T09:48:36.784Z,80.40
2019-01-23T09:51:26.383Z,79.70
2019-01-23T09:54:04.545Z,78.10
2019-01-23T09:56:35.010Z,76.20
2019-01-23T09:59:05.635Z,77.70
2019-01-23T10:01:36.138Z,77.40
2019-01-23T10:04:07.316Z,76.50
2019-01-23T10:06:37.791Z,76.30
2019-01-23T10:09:09.788Z,76.60
2019-01-23T10:11:41.814Z,76.50
2019-01-23T10:14:12.320Z,74.40
2019-01-23T10:16:42.855Z,75.50
2019-01-23T10:19:13.399Z,75.20
2019-01-23T10:21:44.678Z,74.60
2019-01-23T10:24:17.154Z,74.50
2019-01-23T10:26:47.650Z,73.60
2019-01-23T10:29:18.118Z,73.40
2019-01-23T10:31:48.633Z,73.10
2019-01-23T10:34:19.108Z,72.60
2019-01-23T10:36:50.935Z,72.50
2019-01-23T10:39:21.415Z,73.30
2019-01-23T10:41:51.926Z,73.10
2019-01-23T10:44:23.958Z,71.50
2019-01-23T10:46:54.427Z,72.00
2019-01-23T10:49:24.936Z,72.30
2019-01-23T10:51:56.882Z,72.50
2019-01-23T10:54:27.469Z,72.20
2019-01-23T10:56:57.928Z,72.60
2019-01-23T10:59:28.449Z,72.80
2019-01-23T11:01:58.944Z,73.20
2019-01-23T11:04:29.429Z,72.70
2019-01-23T11:07:01.807Z,72.60
2019-01-23T11:09:32.289Z,72.80
2019-01-23T11:12:02.856Z,73.80
2019-01-23T11:14:33.330Z,73.50
2019-01-23T11:17:03.870Z,71.80
2019-01-23T11:19:34.398Z,71.90
2019-01-23T11:22:05.233Z,70.00
2019-01-23T11:24:35.705Z,69.50
2019-01-23T11:27:06.351Z,70.40
2019-01-23T11:29:36.817Z,70.40
2019-01-23T11:32:07.391Z,70.70
2019-01-23T11:34:37.915Z,70.90
2019-01-23T11:37:08.397Z,70.00
2019-01-23T11:39:38.895Z,71.50
2019-01-23T11:42:09.463Z,71.80
2019-01-23T11:44:39.986Z,69.70
2019-01-23T11:47:10.603Z,70.00
2019-01-23T11:49:41.171Z,70.60
2019-01-23T11:52:11.668Z,71.90
2019-01-23T11:54:42.135Z,71.80
2019-01-23T11:57:12.707Z,71.50
2019-01-23T11:59:43.192Z,72.30
2019-01-23T12:02:13.831Z,73.10
2019-01-23T12:04:44.351Z,73.60
2019-01-23T12:07:14.834Z,74.00
2019-01-23T12:09:45.342Z,75.10
2019-01-23T12:12:15.827Z,76.90
2019-01-23T12:14:46.315Z,77.40
2019-01-23T12:17:16.899Z,74.40
2019-01-23T12:19:47.594Z,72.10
2019-01-23T12:22:19.635Z,72.30
2019-01-23T12:24:50.108Z,74.00
2019-01-23T12:27:20.863Z,71.70
2019-01-23T12:29:52.876Z,71.60
2019-01-23T12:32:23.394Z,72.20
2019-01-23T12:34:53.931Z,72.70
2019-01-23T12:37:24.428Z,72.80
2019-01-23T12:39:54.904Z,74.40
2019-01-23T12:42:25.424Z,75.00
2019-01-23T12:44:55.968Z,75.90
2019-01-23T12:47:26.585Z,76.80
2019-01-23T12:49:57.059Z,78.10
2019-01-23T12:52:27.588Z,79.50
2019-01-23T12:54:58.921Z,79.60
2019-01-23T12:57:31.061Z,80.10
2019-01-23T13:00:05.409Z,81.80
2019-01-23T13:02:33.766Z,82.70
2019-01-23T13:05:06.254Z,83.00
2019-01-23T13:07:36.841Z,84.10
2019-01-23T13:10:14.646Z,88.00
2019-01-23T13:12:45.595Z,90.30
2019-01-23T13:15:22.267Z,90.60
2019-01-23T13:17:52.851Z,91.60
2019-01-23T13:20:25.933Z,93.00
2019-01-23T13:22:56.516Z,93.20
2019-01-23T13:25:29.429Z,94.30
2019-01-23T13:28:02.231Z,94.50
2019-01-23T13:30:32.794Z,95.10
2019-01-23T13:33:03.472Z,95.40
2019-01-23T13:35:38.792Z,95.80
2019-01-23T13:38:12.888Z,96.40
2019-01-23T13:40:43.455Z,96.70
2019-01-23T13:43:14.064Z,97.00
2019-01-23T13:45:44.564Z,97.30
2019-01-23T13:48:15.206Z,97.60
2019-01-23T13:50:45.754Z,97.80
2019-01-23T13:53:16.251Z,98.10
2019-01-23T13:55:46.760Z,98.10
2019-01-23T13:58:17.236Z,98.30
2019-01-23T14:00:47.819Z,98.40
2019-01-23T14:03:18.290Z,98.60
2019-01-23T14:05:48.791Z,98.50
2019-01-23T14:08:19.342Z,98.40
2019-01-23T14:10:49.858Z,98.40
2019-01-23T14:13:20.318Z,98.30
2019-01-23T14:15:50.902Z,98.40
2019-01-23T14:18:21.450Z,98.40
2019-01-23T14:20:51.986Z,98.50
2019-01-23T14:23:22.464Z,98.50
2019-01-23T14:25:52.971Z,98.70
2019-01-23T14:28:23.441Z,99.10
2019-01-23T14:30:54.395Z,99.10
2019-01-23T14:33:24.895Z,99.30
2019-01-23T14:35:55.393Z,99.60
2019-01-23T14:38:25.902Z,99.70
2019-01-23T14:40:56.400Z,99.80
2019-01-23T14:43:26.962Z,99.90
2019-01-23T14:45:57.446Z,99.90
2019-01-23T14:48:27.944Z,99.90
2019-01-23T14:50:58.585Z,99.90
2019-01-23T14:53:29.055Z,99.90
2019-01-23T14:55:59.549Z,99.90
2019-01-23T14:58:30.687Z,99.90
2019-01-23T15:01:01.203Z,99.90
2019-01-23T15:03:31.691Z,99.90
2019-01-23T15:06:02.254Z,99.90
2019-01-23T15:08:32.739Z,99.90
2019-01-23T15:11:03.231Z,99.90
2019-01-23T15:13:33.766Z,99.90
2019-01-23T15:16:04.406Z,99.90
2019-01-23T15:18:34.877Z,99.90
2019-01-23T15:21:09.503Z,99.90
2019-01-23T15:23:39.958Z,99.90
2019-01-23T15:26:10.477Z,99.90
2019-01-23T15:28:41.016Z,99.90
2019-01-23T15:31:11.526Z,99.90
2019-01-23T15:33:41.997Z,99.90
2019-01-23T15:36:14.116Z,99.90
2019-01-23T15:38:44.642Z,99.90
2019-01-23T15:41:15.119Z,99.90
2019-01-23T15:43:45.588Z,99.90
2019-01-23T15:46:16.223Z,99.90
2019-01-23T15:48:46.691Z,99.90
2019-01-23T15:51:18.298Z,99.90
2019-01-23T15:53:48.772Z,99.90
2019-01-23T15:56:19.363Z,99.90
2019-01-23T15:58:49.922Z,99.90
2019-01-23T16:01:20.439Z,99.90
2019-01-23T16:03:50.934Z,99.90
2019-01-23T16:06:21.419Z,99.90
2019-01-23T16:08:51.922Z,99.90
2019-01-23T16:11:22.431Z,99.90
2019-01-23T16:13:52.923Z,99.90
2019-01-23T16:16:24.980Z,99.90
2019-01-23T16:18:55.529Z,99.90
2019-01-23T16:21:26.056Z,99.90
2019-01-23T16:23:57.532Z,99.90
2019-01-23T16:26:28.078Z,99.90
2019-01-23T16:28:58.603Z,99.90
2019-01-23T16:31:29.077Z,99.90
2019-01-23T16:33:59.571Z,99.90
2019-01-23T16:36:30.039Z,99.90
2019-01-23T16:39:00.538Z,99.90
2019-01-23T16:41:32.097Z,99.90
2019-01-23T16:44:02.610Z,99.90
2019-01-23T16:46:33.675Z,99.90
2019-01-23T16:49:04.246Z,99.90
2019-01-23T16:51:34.812Z,99.90
2019-01-23T16:54:06.865Z,99.90
2019-01-23T16:56:37.411Z,99.90
2019-01-23T16:59:08.093Z,99.90
2019-01-23T17:01:38.639Z,99.90
2019-01-23T17:04:10.672Z,99.90
2019-01-23T17:06:41.208Z,99.90
2019-01-23T17:09:11.877Z,99.90
2019-01-23T17:11:42.389Z,99.90
2019-01-23T17:14:12.864Z,99.90
2019-01-23T17:16:44.533Z,99.90
2019-01-23T17:19:15.034Z,99.90
2019-01-23T17:21:45.537Z,99.90
2019-01-23T17:24:16.027Z,99.90
2019-01-23T17:26:46.617Z,99.90
2019-01-23T17:29:17.093Z,99.90
2019-01-23T17:31:49.237Z,99.90
2019-01-23T17:34:19.740Z,99.90
2019-01-23T17:36:50.218Z,99.90
2019-01-23T17:39:20.727Z,99.90
2019-01-23T17:41:51.238Z,99.90
2019-01-23T17:44:21.792Z,99.90
2019-01-23T17:46:53.413Z,99.90
2019-01-23T17:49:23.915Z,99.90
2019-01-23T17:51:56.357Z,99.90
2019-01-23T17:54:28.373Z,99.90
2019-01-23T17:56:59.018Z,99.90
2019-01-23T17:59:31.218Z,99.90
2019-01-23T18:02:02.163Z,99.90
2019-01-23T18:04:33.205Z,99.90
2019-01-23T18:07:03.840Z,99.90
2019-01-23T18:09:34.310Z,99.90
2019-01-23T18:12:07.028Z,99.90
2019-01-23T18:14:37.531Z,99.90
2019-01-23T18:17:08.086Z,99.90
2019-01-23T18:19:38.613Z,99.90
2019-01-23T18:22:09.112Z,99.90
2019-01-23T18:24:39.718Z,99.90
2019-01-23T18:27:10.256Z,99.90
2019-01-23T18:29:40.921Z,99.90
2019-01-23T18:32:11.500Z,99.90
2019-01-23T18:34:55.562Z,99.90
2019-01-23T18:37:30.777Z,99.90
2019-01-23T18:40:17.133Z,99.90
2019-01-23T18:42:54.830Z,99.90
2019-01-23T18:45:30.264Z,99.90
2019-01-23T18:48:16.830Z,99.90
2019-01-23T18:51:06.183Z,99.90
2019-01-23T18:53:36.691Z,99.90
2019-01-23T18:56:07.239Z,99.90
2019-01-23T18:58:37.758Z,99.90
2019-01-23T19:01:08.333Z,99.90
2019-01-23T19:03:38.820Z,99.90
2019-01-23T19:06:09.391Z,99.90
2019-01-23T19:08:39.871Z,99.90
2019-01-23T19:11:11.479Z,99.90
2019-01-23T19:13:41.997Z,99.90
2019-01-23T19:16:14.672Z,99.90
2019-01-23T19:18:45.923Z,99.90
2019-01-23T19:21:16.450Z,99.90
2019-01-23T19:23:47.808Z,99.90
2019-01-23T19:26:18.326Z,99.90
2019-01-23T19:28:48.805Z,99.90
2019-01-23T19:31:19.337Z,99.90
2019-01-23T19:33:49.884Z,99.90
2019-01-23T19:36:20.381Z,99.90
2019-01-23T19:38:50.900Z,99.90
2019-01-23T19:41:21.368Z,99.90
2019-01-23T19:43:51.875Z,99.90
2019-01-23T19:46:22.352Z,99.90
2019-01-23T19:48:52.857Z,99.90
2019-01-23T19:51:23.372Z,99.90
2019-01-23T19:53:53.860Z,99.90
2019-01-23T19:56:24.393Z,99.90
2019-01-23T19:58:54.940Z,99.90
2019-01-23T20:01:25.612Z,99.90
2019-01-23T20:03:56.172Z,99.90
2019-01-23T20:06:26.714Z,99.90
2019-01-23T20:08:57.195Z,99.90
2019-01-23T20:11:27.766Z,99.90
2019-01-23T20:13:58.235Z,99.90
2019-01-23T20:16:28.741Z,99.90
2019-01-23T20:19:00.745Z,99.90
2019-01-23T20:21:31.318Z,99.90
2019-01-23T20:24:01.778Z,99.90
2019-01-23T20:26:32.298Z,99.90
2019-01-23T20:29:05.634Z,99.90
2019-01-23T20:31:36.149Z,99.90
2019-01-23T20:34:07.293Z,99.90
2019-01-23T20:36:37.769Z,99.90
2019-01-23T20:39:10.728Z,99.90
2019-01-23T20:41:41.275Z,99.90
2019-01-23T20:44:11.789Z,99.90
2019-01-23T20:46:42.334Z,99.90
2019-01-23T20:49:12.839Z,99.90
2019-01-23T20:51:43.313Z,99.90
2019-01-23T20:54:13.812Z,99.90
2019-01-23T20:56:44.356Z,99.90
2019-01-23T20:59:14.834Z,99.90
2019-01-23T21:01:45.346Z,99.90
2019-01-23T21:04:15.821Z,99.90
2019-01-23T21:06:46.437Z,99.90
2019-01-23T21:09:17.810Z,99.90
2019-01-23T21:11:48.332Z,99.90
2019-01-23T21:14:18.805Z,99.90
2019-01-23T21:16:49.328Z,99.90
2019-01-23T21:19:19.803Z,98.80
2019-01-23T21:21:50.281Z,97.70
2019-01-23T21:24:20.812Z,96.80
2019-01-23T21:26:51.301Z,96.90
2019-01-23T21:29:21.787Z,96.40
2019-01-23T21:31:52.291Z,96.40
2019-01-23T21:34:22.766Z,96.00
2019-01-23T21:36:53.261Z,95.90
2019-01-23T21:39:23.731Z,95.90
2019-01-23T21:41:54.251Z,95.80
2019-01-23T21:44:24.718Z,95.70
2019-01-23T21:46:55.234Z,95.80
2019-01-23T21:49:25.711Z,95.80
2019-01-23T21:51:56.225Z,95.70
2019-01-23T21:54:26.775Z,95.70
2019-01-23T21:56:57.342Z,95.80
2019-01-23T21:59:27.811Z,96.00
2019-01-23T22:01:58.387Z,97.00
2019-01-23T22:04:28.878Z,96.90
2019-01-23T22:06:59.360Z,96.80
2019-01-23T22:09:29.867Z,96.70
2019-01-23T22:12:00.345Z,96.60
2019-01-23T22:14:30.851Z,96.60
2019-01-23T22:17:01.324Z,96.70
2019-01-23T22:19:32.064Z,96.90
2019-01-23T22:22:02.533Z,96.90
2019-01-23T22:24:33.029Z,96.60
2019-01-23T22:27:03.500Z,96.20
2019-01-23T22:29:34.017Z,96.50
2019-01-23T22:32:04.853Z,96.50
2019-01-23T22:34:35.362Z,96.40
2019-01-23T22:37:05.902Z,96.10
2019-01-23T22:39:36.393Z,95.80
2019-01-23T22:42:06.930Z,95.80
2019-01-23T22:44:37.433Z,95.80
2019-01-23T22:47:07.894Z,95.70
2019-01-23T22:49:38.396Z,95.60
2019-01-23T22:52:08.858Z,95.50
2019-01-23T22:54:39.396Z,95.60
2019-01-23T22:57:09.859Z,95.50
2019-01-23T22:59:40.361Z,95.50
2019-01-23T23:02:10.837Z,95.60
2019-01-23T23:04:41.350Z,95.70
2019-01-23T23:07:11.829Z,95.70
2019-01-23T23:09:42.339Z,96.00
2019-01-23T23:12:12.803Z,96.30
2019-01-23T23:14:43.376Z,96.50
2019-01-23T23:17:13.845Z,96.80
2019-01-23T23:19:44.388Z,97.00
2019-01-23T23:22:14.867Z,97.50
2019-01-23T23:24:45.370Z,98.10
2019-01-23T23:27:15.845Z,98.20
2019-01-23T23:29:46.369Z,98.40
2019-01-23T23:32:16.833Z,98.60
2019-01-23T23:34:47.350Z,98.80
2019-01-23T23:37:17.820Z,99.00
2019-01-23T23:39:48.319Z,99.20
2019-01-23T23:42:18.864Z,99.20
2019-01-23T23:44:49.440Z,99.30
2019-01-23T23:47:19.935Z,99.40
2019-01-23T23:49:50.435Z,99.30
2019-01-23T23:52:20.917Z,99.30
2019-01-23T23:54:51.500Z,99.40
2019-01-23T23:57:22.077Z,99.40
2019-01-23T23:59:52.545Z,99.50
